Weather at Centredale Airport

Public forecast

Using degrees Celsius for public forecast. Weather courtesy of forecast.io.

Closest aviation weather report (METAR) to Centredale Airport

Closest report is Halifax / Stanfield International Airport, 49.3 nm (91.3 km) SW.

2023/03/23 05:00 (retrieved 20 minutes ago)

CYHZ 230500Z 29007KT 15SM BKN220 M02/M06 A3030 RMK CI6 SLP270

Closest aviation forecast (TAF) to Centredale Airport

Forecast is more than 6 hours old.

Closest forecast is Îles-de-la-Madeleine Airport, 125.9 nm (233.2 km) NNE.

2023/03/22 20:00 (retrieved 9 hours ago)

TAF CYGR 221940Z 2220/2302 30012G22KT P6SM BKN030 TEMPO 2220/2302 5SM -SHSN BKN020 PROB30 2223/2302 2SM -SHSN RMK NXT FCST BY 231100Z